sensor_id;sensor_type;location;lat;lon;timestamp;pressure;altitude;pressure_sealevel;temperature;humidity
55604;BME280;41468;48.838;9.330;2022-11-15T00:11:26;98102.13;;;10.87;82.17
55604;BME280;41468;48.838;9.330;2022-11-15T00:13:57;98096.75;;;10.94;81.76
55604;BME280;41468;48.838;9.330;2022-11-15T00:16:24;98097.16;;;10.96;81.58
55604;BME280;41468;48.838;9.330;2022-11-15T00:18:51;98107.34;;;11.03;80.84
55604;BME280;41468;48.838;9.330;2022-11-15T00:21:17;98105.75;;;10.98;81.42
55604;BME280;41468;48.838;9.330;2022-11-15T00:23:44;98108.00;;;10.89;81.81
55604;BME280;41468;48.838;9.330;2022-11-15T00:26:13;98110.34;;;10.91;82.25
55604;BME280;41468;48.838;9.330;2022-11-15T00:28:40;98116.19;;;10.89;82.94
55604;BME280;41468;48.838;9.330;2022-11-15T00:31:11;98112.69;;;10.89;82.40
55604;BME280;41468;48.838;9.330;2022-11-15T00:33:38;98109.19;;;10.92;83.18
55604;BME280;41468;48.838;9.330;2022-11-15T00:36:08;98108.88;;;11.00;82.38
55604;BME280;41468;48.838;9.330;2022-11-15T00:38:39;98105.25;;;10.89;83.02
55604;BME280;41468;48.838;9.330;2022-11-15T00:41:07;98096.75;;;10.94;83.06
55604;BME280;41468;48.838;9.330;2022-11-15T00:43:35;98098.59;;;10.87;83.73
55604;BME280;41468;48.838;9.330;2022-11-15T00:46:02;98095.84;;;10.83;83.82
55604;BME280;41468;48.838;9.330;2022-11-15T00:48:29;98099.66;;;10.75;85.02
55604;BME280;41468;48.838;9.330;2022-11-15T00:50:56;98091.91;;;10.80;84.23
55604;BME280;41468;48.838;9.330;2022-11-15T00:53:23;98090.31;;;10.76;84.09
55604;BME280;41468;48.838;9.330;2022-11-15T00:55:49;98087.91;;;10.71;84.37
55604;BME280;41468;48.838;9.330;2022-11-15T00:58:16;98079.03;;;10.81;84.42
55604;BME280;41468;48.838;9.330;2022-11-15T01:00:43;98090.31;;;10.79;84.29
55604;BME280;41468;48.838;9.330;2022-11-15T01:03:09;98082.06;;;10.72;83.68
55604;BME280;41468;48.838;9.330;2022-11-15T01:05:37;98079.38;;;10.76;83.93
55604;BME280;41468;48.838;9.330;2022-11-15T01:08:04;98069.97;;;10.70;83.68
55604;BME280;41468;48.838;9.330;2022-11-15T01:10:31;98076.97;;;10.71;82.95
55604;BME280;41468;48.838;9.330;2022-11-15T01:12:57;98072.72;;;10.73;82.08
55604;BME280;41468;48.838;9.330;2022-11-15T01:15:24;98061.47;;;10.82;81.31
55604;BME280;41468;48.838;9.330;2022-11-15T01:17:51;98061.81;;;10.77;81.44
55604;BME280;41468;48.838;9.330;2022-11-15T01:20:17;98063.06;;;10.83;81.09
55604;BME280;41468;48.838;9.330;2022-11-15T01:22:45;98061.47;;;10.82;81.19
55604;BME280;41468;48.838;9.330;2022-11-15T01:25:11;98057.56;;;10.79;81.03
55604;BME280;41468;48.838;9.330;2022-11-15T01:27:38;98053.97;;;10.72;81.88
55604;BME280;41468;48.838;9.330;2022-11-15T01:30:05;98049.34;;;10.76;81.77
55604;BME280;41468;48.838;9.330;2022-11-15T01:32:32;98054.31;;;10.67;81.77
55604;BME280;41468;48.838;9.330;2022-11-15T01:34:59;98057.06;;;10.67;83.28
55604;BME280;41468;48.838;9.330;2022-11-15T01:37:26;98054.53;;;10.51;85.72
55604;BME280;41468;48.838;9.330;2022-11-15T01:39:52;98054.00;;;10.38;87.56
55604;BME280;41468;48.838;9.330;2022-11-15T01:42:19;98055.16;;;10.37;86.70
55604;BME280;41468;48.838;9.330;2022-11-15T01:44:50;98045.72;;;10.31;85.71
55604;BME280;41468;48.838;9.330;2022-11-15T01:47:34;98049.28;;;10.35;84.76
55604;BME280;41468;48.838;9.330;2022-11-15T01:50:23;98050.53;;;10.41;84.10
55604;BME280;41468;48.838;9.330;2022-11-15T01:52:51;98041.97;;;10.43;84.49
55604;BME280;41468;48.838;9.330;2022-11-15T01:55:25;98049.75;;;10.41;84.12
55604;BME280;41468;48.838;9.330;2022-11-15T01:57:58;98043.16;;;10.45;84.48
55604;BME280;41468;48.838;9.330;2022-11-15T02:00:26;98048.91;;;10.36;84.25
55604;BME280;41468;48.838;9.330;2022-11-15T02:02:52;98036.06;;;10.37;84.77
55604;BME280;41468;48.838;9.330;2022-11-15T02:05:19;98036.34;;;10.28;85.60
55604;BME280;41468;48.838;9.330;2022-11-15T02:07:47;98035.09;;;10.26;85.96
55604;BME280;41468;48.838;9.330;2022-11-15T02:10:19;98031.47;;;10.14;87.96
55604;BME280;41468;48.838;9.330;2022-11-15T02:12:47;98030.97;;;10.05;88.80
55604;BME280;41468;48.838;9.330;2022-11-15T02:15:15;98032.81;;;9.98;89.46
55604;BME280;41468;48.838;9.330;2022-11-15T02:34:29;98010.59;;;9.65;94.10
55604;BME280;41468;48.838;9.330;2022-11-15T02:42:49;98008.63;;;9.66;94.85
55604;BME280;41468;48.838;9.330;2022-11-15T02:46:01;98002.72;;;9.60;95.44
55604;BME280;41468;48.838;9.330;2022-11-15T02:48:25;97999.06;;;9.49;96.80
55604;BME280;41468;48.838;9.330;2022-11-15T02:50:52;97986.69;;;9.55;96.48
55604;BME280;41468;48.838;9.330;2022-11-15T02:53:24;97995.28;;;9.57;96.26
55604;BME280;41468;48.838;9.330;2022-11-15T02:55:51;97996.06;;;9.58;97.09
55604;BME280;41468;48.838;9.330;2022-11-15T03:01:30;97988.97;;;9.53;96.74
55604;BME280;41468;48.838;9.330;2022-11-15T03:07:05;97987.38;;;9.48;96.98
55604;BME280;41468;48.838;9.330;2022-11-15T03:09:37;97984.00;;;9.32;98.12
55604;BME280;41468;48.838;9.330;2022-11-15T03:12:12;97981.94;;;9.22;99.04
55604;BME280;41468;48.838;9.330;2022-11-15T03:14:56;97978.34;;;9.18;99.54
55604;BME280;41468;48.838;9.330;2022-11-15T03:17:36;97968.81;;;9.04;100.00
55604;BME280;41468;48.838;9.330;2022-11-15T03:20:05;97978.31;;;9.14;100.00
55604;BME280;41468;48.838;9.330;2022-11-15T03:22:35;97965.47;;;9.15;100.00
55604;BME280;41468;48.838;9.330;2022-11-15T03:25:06;97976.19;;;9.04;100.00
55604;BME280;41468;48.838;9.330;2022-11-15T03:27:38;97971.28;;;9.13;100.00
55604;BME280;41468;48.838;9.330;2022-11-15T03:30:08;97968.38;;;9.02;100.00
55604;BME280;41468;48.838;9.330;2022-11-15T03:32:46;97961.38;;;9.01;100.00
55604;BME280;41468;48.838;9.330;2022-11-15T03:35:21;97959.69;;;8.93;100.00
55604;BME280;41468;48.838;9.330;2022-11-15T03:37:56;97951.56;;;8.97;100.00
55604;BME280;41468;48.838;9.330;2022-11-15T03:40:29;97948.31;;;8.88;100.00
55604;BME280;41468;48.838;9.330;2022-11-15T03:45:55;97954.28;;;8.97;100.00
55604;BME280;41468;48.838;9.330;2022-11-15T03:48:26;97957.75;;;8.94;100.00
55604;BME280;41468;48.838;9.330;2022-11-15T03:50:56;97953.78;;;8.88;100.00
55604;BME280;41468;48.838;9.330;2022-11-15T03:53:22;97957.66;;;8.87;100.00
55604;BME280;41468;48.838;9.330;2022-11-15T03:55:49;97946.97;;;9.01;100.00
55604;BME280;41468;48.838;9.330;2022-11-15T03:58:16;97938.94;;;9.08;100.00
55604;BME280;41468;48.838;9.330;2022-11-15T04:00:42;97935.56;;;9.18;99.80
55604;BME280;41468;48.838;9.330;2022-11-15T04:03:09;97941.00;;;9.18;99.61
55604;BME280;41468;48.838;9.330;2022-11-15T04:05:36;97930.84;;;9.15;99.77
55604;BME280;41468;48.838;9.330;2022-11-15T04:08:02;97932.75;;;9.11;100.00
55604;BME280;41468;48.838;9.330;2022-11-15T04:10:29;97939.94;;;9.00;100.00
55604;BME280;41468;48.838;9.330;2022-11-15T04:12:56;97935.31;;;9.00;100.00
55604;BME280;41468;48.838;9.330;2022-11-15T04:15:23;97935.22;;;8.97;100.00
55604;BME280;41468;48.838;9.330;2022-11-15T04:17:52;97938.81;;;9.01;100.00
55604;BME280;41468;48.838;9.330;2022-11-15T04:20:20;97932.78;;;8.88;100.00
55604;BME280;41468;48.838;9.330;2022-11-15T04:23:17;97938.34;;;8.95;100.00
55604;BME280;41468;48.838;9.330;2022-11-15T04:26:05;97935.03;;;8.82;100.00
55604;BME280;41468;48.838;9.330;2022-11-15T04:28:32;97932.28;;;8.82;100.00
55604;BME280;41468;48.838;9.330;2022-11-15T04:30:59;97931.09;;;8.80;100.00
55604;BME280;41468;48.838;9.330;2022-11-15T04:33:25;97935.06;;;8.86;100.00
55604;BME280;41468;48.838;9.330;2022-11-15T04:35:52;97927.88;;;8.97;100.00
55604;BME280;41468;48.838;9.330;2022-11-15T04:38:37;97925.84;;;8.94;100.00
55604;BME280;41468;48.838;9.330;2022-11-15T04:41:04;97928.66;;;8.98;100.00
55604;BME280;41468;48.838;9.330;2022-11-15T04:43:31;97927.50;;;8.99;100.00
55604;BME280;41468;48.838;9.330;2022-11-15T04:45:58;97926.41;;;9.03;99.96
55604;BME280;41468;48.838;9.330;2022-11-15T04:48:25;97934.09;;;8.98;100.00
55604;BME280;41468;48.838;9.330;2022-11-15T04:50:51;97923.44;;;8.89;100.00
55604;BME280;41468;48.838;9.330;2022-11-15T04:53:18;97906.31;;;8.89;100.00
55604;BME280;41468;48.838;9.330;2022-11-15T04:55:46;97903.03;;;8.76;100.00
55604;BME280;41468;48.838;9.330;2022-11-15T04:58:13;97906.94;;;8.78;100.00
55604;BME280;41468;48.838;9.330;2022-11-15T05:00:39;97905.75;;;8.76;100.00
55604;BME280;41468;48.838;9.330;2022-11-15T05:03:06;97916.97;;;8.71;100.00
55604;BME280;41468;48.838;9.330;2022-11-15T05:05:59;97911.03;;;8.65;100.00
55604;BME280;41468;48.838;9.330;2022-11-15T05:08:26;97905.22;;;8.67;100.00
55604;BME280;41468;48.838;9.330;2022-11-15T05:10:52;97903.69;;;8.69;100.00
55604;BME280;41468;48.838;9.330;2022-11-15T05:13:19;97904.59;;;8.77;99.75
55604;BME280;41468;48.838;9.330;2022-11-15T05:15:46;97905.25;;;8.70;99.97
55604;BME280;41468;48.838;9.330;2022-11-15T05:18:13;97897.81;;;8.67;100.00
55604;BME280;41468;48.838;9.330;2022-11-15T05:20:46;97895.19;;;8.71;100.00
55604;BME280;41468;48.838;9.330;2022-11-15T05:23:12;97894.38;;;8.70;100.00
55604;BME280;41468;48.838;9.330;2022-11-15T05:25:39;97894.38;;;8.70;99.85
55604;BME280;41468;48.838;9.330;2022-11-15T05:28:05;97887.78;;;8.71;99.69
55604;BME280;41468;48.838;9.330;2022-11-15T05:30:32;97898.25;;;8.69;99.57
55604;BME280;41468;48.838;9.330;2022-11-15T05:32:59;97899.28;;;8.61;100.00
55604;BME280;41468;48.838;9.330;2022-11-15T05:35:40;97894.94;;;8.56;100.00
55604;BME280;41468;48.838;9.330;2022-11-15T05:38:08;97896.03;;;8.52;100.00
55604;BME280;41468;48.838;9.330;2022-11-15T05:40:35;97890.22;;;8.53;100.00
55604;BME280;41468;48.838;9.330;2022-11-15T05:43:03;97896.28;;;8.66;100.00
55604;BME280;41468;48.838;9.330;2022-11-15T05:45:31;97893.16;;;8.68;99.74
55604;BME280;41468;48.838;9.330;2022-11-15T05:48:00;97890.53;;;8.71;99.38
55604;BME280;41468;48.838;9.330;2022-11-15T05:50:31;97888.94;;;8.70;98.68
55604;BME280;41468;48.838;9.330;2022-11-15T05:52:59;97885.16;;;8.78;97.96
55604;BME280;41468;48.838;9.330;2022-11-15T05:55:31;97882.81;;;8.77;97.45
55604;BME280;41468;48.838;9.330;2022-11-15T05:57:58;97875.97;;;8.87;96.88
55604;BME280;41468;48.838;9.330;2022-11-15T06:00:24;97875.13;;;8.82;96.66
55604;BME280;41468;48.838;9.330;2022-11-15T06:02:51;97875.16;;;8.86;96.55
55604;BME280;41468;48.838;9.330;2022-11-15T06:05:17;97884.50;;;8.85;96.21
55604;BME280;41468;48.838;9.330;2022-11-15T06:07:44;97875.16;;;8.86;95.81
55604;BME280;41468;48.838;9.330;2022-11-15T06:10:11;97882.13;;;8.83;96.22
55604;BME280;41468;48.838;9.330;2022-11-15T06:12:37;97882.56;;;8.85;96.50
55604;BME280;41468;48.838;9.330;2022-11-15T06:15:04;97884.97;;;8.91;96.49
55604;BME280;41468;48.838;9.330;2022-11-15T06:17:31;97883.00;;;8.88;96.31
55604;BME280;41468;48.838;9.330;2022-11-15T06:19:58;97891.47;;;8.82;96.53
55604;BME280;41468;48.838;9.330;2022-11-15T06:22:24;97886.53;;;8.92;96.14
55604;BME280;41468;48.838;9.330;2022-11-15T06:25:02;97897.06;;;8.93;96.03
55604;BME280;41468;48.838;9.330;2022-11-15T06:27:31;97892.41;;;8.94;95.73
55604;BME280;41468;48.838;9.330;2022-11-15T06:29:57;97891.66;;;8.97;95.79
55604;BME280;41468;48.838;9.330;2022-11-15T06:32:24;97894.53;;;8.81;96.87
55604;BME280;41468;48.838;9.330;2022-11-15T06:34:51;97893.03;;;8.83;96.93
55604;BME280;41468;48.838;9.330;2022-11-15T06:37:17;97877.34;;;8.73;97.18
55604;BME280;41468;48.838;9.330;2022-11-15T06:39:44;97882.44;;;8.78;96.81
55604;BME280;41468;48.838;9.330;2022-11-15T06:42:11;97887.50;;;8.76;96.93
55604;BME280;41468;48.838;9.330;2022-11-15T06:44:37;97882.44;;;8.78;96.29
55604;BME280;41468;48.838;9.330;2022-11-15T06:47:04;97884.69;;;8.73;96.44
55604;BME280;41468;48.838;9.330;2022-11-15T06:49:31;97882.78;;;8.73;96.79
55604;BME280;41468;48.838;9.330;2022-11-15T06:51:57;97887.00;;;8.71;97.15
55604;BME280;41468;48.838;9.330;2022-11-15T06:54:24;97885.81;;;8.68;97.60
55604;BME280;41468;48.838;9.330;2022-11-15T06:56:51;97881.25;;;8.76;97.52
55604;BME280;41468;48.838;9.330;2022-11-15T06:59:17;97887.41;;;8.73;97.11
55604;BME280;41468;48.838;9.330;2022-11-15T07:01:44;97881.09;;;8.65;97.79
55604;BME280;41468;48.838;9.330;2022-11-15T07:04:11;97892.81;;;8.69;98.05
55604;BME280;41468;48.838;9.330;2022-11-15T07:06:37;97891.19;;;8.65;97.23
55604;BME280;41468;48.838;9.330;2022-11-15T07:09:04;97887.19;;;8.81;97.15
55604;BME280;41468;48.838;9.330;2022-11-15T07:11:32;97891.13;;;8.84;96.96
55604;BME280;41468;48.838;9.330;2022-11-15T07:14:00;97891.41;;;8.79;96.59
55604;BME280;41468;48.838;9.330;2022-11-15T07:16:26;97890.69;;;8.82;97.05
55604;BME280;41468;48.838;9.330;2022-11-15T07:18:53;97889.53;;;8.83;96.58
55604;BME280;41468;48.838;9.330;2022-11-15T07:21:20;97894.69;;;8.92;95.97
55604;BME280;41468;48.838;9.330;2022-11-15T07:23:52;97894.69;;;8.92;96.50
55604;BME280;41468;48.838;9.330;2022-11-15T07:26:26;97904.38;;;8.89;97.30
55604;BME280;41468;48.838;9.330;2022-11-15T07:28:53;97894.50;;;8.77;98.57
55604;BME280;41468;48.838;9.330;2022-11-15T07:31:20;97893.88;;;8.88;98.45
55604;BME280;41468;48.838;9.330;2022-11-15T07:33:48;97900.06;;;8.84;98.76
55604;BME280;41468;48.838;9.330;2022-11-15T07:36:15;97901.25;;;8.87;98.73
55604;BME280;41468;48.838;9.330;2022-11-15T07:38:46;97898.28;;;8.96;98.12
55604;BME280;41468;48.838;9.330;2022-11-15T07:41:13;97899.53;;;9.02;98.23
55604;BME280;41468;48.838;9.330;2022-11-15T07:43:39;97892.81;;;8.96;98.54
55604;BME280;41468;48.838;9.330;2022-11-15T07:46:07;97902.56;;;8.97;99.35
55604;BME280;41468;48.838;9.330;2022-11-15T07:48:37;97901.72;;;8.93;99.83
55604;BME280;41468;48.838;9.330;2022-11-15T07:51:12;97901.47;;;9.01;98.91
55604;BME280;41468;48.838;9.330;2022-11-15T07:53:41;97898.69;;;8.98;99.09
55604;BME280;41468;48.838;9.330;2022-11-15T07:56:07;97895.81;;;9.14;98.74
55604;BME280;41468;48.838;9.330;2022-11-15T07:58:34;97892.81;;;9.22;98.55
55604;BME280;41468;48.838;9.330;2022-11-15T08:01:05;97892.84;;;9.26;98.52
55604;BME280;41468;48.838;9.330;2022-11-15T08:03:33;97877.66;;;9.55;94.46
55604;BME280;41468;48.838;9.330;2022-11-15T08:06:01;97874.09;;;9.85;92.67
55604;BME280;41468;48.838;9.330;2022-11-15T08:08:28;97877.13;;;10.13;91.81
55604;BME280;41468;48.838;9.330;2022-11-15T08:10:57;97882.41;;;10.33;88.89
55604;BME280;41468;48.838;9.330;2022-11-15T08:13:24;97863.75;;;10.38;87.80
55604;BME280;41468;48.838;9.330;2022-11-15T08:15:50;97865.03;;;10.55;86.33
55604;BME280;41468;48.838;9.330;2022-11-15T08:18:24;97867.84;;;10.66;85.89
55604;BME280;41468;48.838;9.330;2022-11-15T08:20:59;97867.91;;;10.70;86.40
55604;BME280;41468;48.838;9.330;2022-11-15T08:23:26;97868.75;;;10.77;87.88
55604;BME280;41468;48.838;9.330;2022-11-15T08:26:00;97869.97;;;10.87;84.82
55604;BME280;41468;48.838;9.330;2022-11-15T08:28:27;97864.56;;;10.94;84.14
55604;BME280;41468;48.838;9.330;2022-11-15T08:30:53;97864.63;;;11.05;82.97
55604;BME280;41468;48.838;9.330;2022-11-15T08:33:20;97860.75;;;11.10;83.01
55604;BME280;41468;48.838;9.330;2022-11-15T08:35:47;97854.88;;;11.11;84.29
55604;BME280;41468;48.838;9.330;2022-11-15T08:38:14;97850.19;;;11.08;87.37
55604;BME280;41468;48.838;9.330;2022-11-15T08:40:45;97854.81;;;11.00;89.73
55604;BME280;41468;48.838;9.330;2022-11-15T08:43:12;97852.09;;;11.00;90.86
55604;BME280;41468;48.838;9.330;2022-11-15T08:45:39;97851.25;;;10.86;91.48
55604;BME280;41468;48.838;9.330;2022-11-15T08:48:05;97846.91;;;10.84;91.83
55604;BME280;41468;48.838;9.330;2022-11-15T08:50:32;97859.81;;;10.88;91.48
55604;BME280;41468;48.838;9.330;2022-11-15T08:53:05;97848.25;;;11.12;91.52
55604;BME280;41468;48.838;9.330;2022-11-15T08:55:32;97848.03;;;11.49;90.44
55604;BME280;41468;48.838;9.330;2022-11-15T08:57:59;97835.22;;;11.68;88.45
55604;BME280;41468;48.838;9.330;2022-11-15T09:00:25;97834.91;;;11.87;86.63
55604;BME280;41468;48.838;9.330;2022-11-15T09:02:52;97825.94;;;12.08;84.18
55604;BME280;41468;48.838;9.330;2022-11-15T09:05:19;97832.22;;;12.23;80.46
55604;BME280;41468;48.838;9.330;2022-11-15T09:07:46;97829.50;;;12.37;81.26
55604;BME280;41468;48.838;9.330;2022-11-15T09:10:12;97824.00;;;12.52;79.28
55604;BME280;41468;48.838;9.330;2022-11-15T09:12:39;97825.56;;;12.46;78.08
55604;BME280;41468;48.838;9.330;2022-11-15T09:15:06;97822.84;;;12.64;79.31
55604;BME280;41468;48.838;9.330;2022-11-15T09:17:33;97812.22;;;12.83;80.04
55604;BME280;41468;48.838;9.330;2022-11-15T09:20:00;97819.28;;;12.81;77.58
55604;BME280;41468;48.838;9.330;2022-11-15T09:22:27;97821.22;;;12.91;78.17
55604;BME280;41468;48.838;9.330;2022-11-15T09:24:54;97825.94;;;12.87;76.55
55604;BME280;41468;48.838;9.330;2022-11-15T09:27:21;97823.19;;;12.98;76.98
55604;BME280;41468;48.838;9.330;2022-11-15T09:29:48;97825.13;;;12.94;76.93
55604;BME280;41468;48.838;9.330;2022-11-15T09:32:14;97827.09;;;12.86;75.92
55604;BME280;41468;48.838;9.330;2022-11-15T09:34:41;97825.56;;;12.81;77.00
55604;BME280;41468;48.838;9.330;2022-11-15T09:37:08;97820.84;;;12.86;79.38
55604;BME280;41468;48.838;9.330;2022-11-15T09:39:34;97819.25;;;12.92;79.98
55604;BME280;41468;48.838;9.330;2022-11-15T09:45:02;97821.63;;;12.90;78.00
55604;BME280;41468;48.838;9.330;2022-11-15T09:50:15;97809.06;;;12.99;79.62
55604;BME280;41468;48.838;9.330;2022-11-15T09:52:45;97809.06;;;13.03;80.34
55604;BME280;41468;48.838;9.330;2022-11-15T09:55:14;97803.56;;;13.10;81.39
55604;BME280;41468;48.838;9.330;2022-11-15T09:57:55;97803.94;;;13.05;78.09
55604;BME280;41468;48.838;9.330;2022-11-15T10:00:34;97798.88;;;13.07;77.24
55604;BME280;41468;48.838;9.330;2022-11-15T10:03:24;97797.69;;;13.04;79.15
55604;BME280;41468;48.838;9.330;2022-11-15T10:05:57;97794.56;;;13.02;76.04
55604;BME280;41468;48.838;9.330;2022-11-15T10:11:17;97790.59;;;13.29;72.89
55604;BME280;41468;48.838;9.330;2022-11-15T10:14:10;97790.94;;;13.38;72.43
55604;BME280;41468;48.838;9.330;2022-11-15T10:16:57;97795.56;;;13.55;72.56
55604;BME280;41468;48.838;9.330;2022-11-15T10:24:35;97779.53;;;13.50;71.41
55604;BME280;41468;48.838;9.330;2022-11-15T10:27:10;97786.16;;;13.56;71.80
55604;BME280;41468;48.838;9.330;2022-11-15T10:29:43;97772.41;;;13.63;71.01
55604;BME280;41468;48.838;9.330;2022-11-15T10:32:14;97777.84;;;13.70;73.34
55604;BME280;41468;48.838;9.330;2022-11-15T10:34:40;97769.69;;;13.60;72.63
55604;BME280;41468;48.838;9.330;2022-11-15T10:37:07;97766.53;;;13.65;74.66
55604;BME280;41468;48.838;9.330;2022-11-15T10:39:34;97763.41;;;13.59;72.70
55604;BME280;41468;48.838;9.330;2022-11-15T10:42:27;97761.41;;;13.70;73.83
55604;BME280;41468;48.838;9.330;2022-11-15T10:44:54;97751.59;;;13.73;71.99
55604;BME280;41468;48.838;9.330;2022-11-15T10:50:03;97745.28;;;13.76;74.35
55604;BME280;41468;48.838;9.330;2022-11-15T10:52:33;97743.31;;;13.77;75.44
55604;BME280;41468;48.838;9.330;2022-11-15T10:55:05;97737.41;;;13.82;70.91
55604;BME280;41468;48.838;9.330;2022-11-15T10:57:36;97734.69;;;13.78;70.26
55604;BME280;41468;48.838;9.330;2022-11-15T11:00:27;97731.56;;;13.73;69.92
55604;BME280;41468;48.838;9.330;2022-11-15T11:10:56;97729.53;;;13.87;75.45
55604;BME280;41468;48.838;9.330;2022-11-15T11:13:34;97729.56;;;13.84;75.19
55604;BME280;41468;48.838;9.330;2022-11-15T11:16:14;97721.31;;;13.84;75.98
55604;BME280;41468;48.838;9.330;2022-11-15T11:19:23;97728.38;;;13.85;76.55
55604;BME280;41468;48.838;9.330;2022-11-15T11:22:22;97724.84;;;13.84;75.91
55604;BME280;41468;48.838;9.330;2022-11-15T11:30:50;97717.09;;;13.72;74.55
55604;BME280;41468;48.838;9.330;2022-11-15T11:33:27;97719.47;;;13.66;74.45
55604;BME280;41468;48.838;9.330;2022-11-15T11:46:55;97704.56;;;14.20;76.30
55604;BME280;41468;48.838;9.330;2022-11-15T11:52:07;97695.53;;;14.19;69.82
55604;BME280;41468;48.838;9.330;2022-11-15T12:00:02;97685.72;;;14.22;70.86
55604;BME280;41468;48.838;9.330;2022-11-15T12:02:39;97679.88;;;14.16;70.17
55604;BME280;41468;48.838;9.330;2022-11-15T12:05:13;97677.53;;;14.14;68.72
55604;BME280;41468;48.838;9.330;2022-11-15T12:07:45;97675.91;;;14.21;68.37
55604;BME280;41468;48.838;9.330;2022-11-15T12:10:25;97664.91;;;14.21;68.72
55604;BME280;41468;48.838;9.330;2022-11-15T12:13:11;97666.50;;;14.18;68.45
55604;BME280;41468;48.838;9.330;2022-11-15T12:15:53;97667.22;;;14.26;67.58
55604;BME280;41468;48.838;9.330;2022-11-15T12:18:22;97667.28;;;14.22;67.86
55604;BME280;41468;48.838;9.330;2022-11-15T12:20:54;97660.91;;;14.29;67.10
55604;BME280;41468;48.838;9.330;2022-11-15T12:23:38;97653.69;;;14.46;67.11
55604;BME280;41468;48.838;9.330;2022-11-15T12:26:17;97648.59;;;14.44;65.72
55604;BME280;41468;48.838;9.330;2022-11-15T12:28:56;97645.03;;;14.47;66.13
55604;BME280;41468;48.838;9.330;2022-11-15T12:34:48;97647.19;;;14.29;67.07
55604;BME280;41468;48.838;9.330;2022-11-15T12:36:50;97648.00;;;14.26;67.58
55604;BME280;41468;48.838;9.330;2022-11-15T12:39:18;97652.31;;;14.27;67.90
55604;BME280;41468;48.838;9.330;2022-11-15T13:02:39;97632.41;;;14.15;71.09
55604;BME280;41468;48.838;9.330;2022-11-15T13:17:50;97616.31;;;14.18;71.76
55604;BME280;41468;48.838;9.330;2022-11-15T13:20:27;97613.56;;;14.18;71.90
55604;BME280;41468;48.838;9.330;2022-11-15T13:23:35;97604.84;;;14.26;72.44
55604;BME280;41468;48.838;9.330;2022-11-15T13:26:14;97593.97;;;14.19;72.44
55604;BME280;41468;48.838;9.330;2022-11-15T13:28:45;97592.66;;;14.31;71.93
55604;BME280;41468;48.838;9.330;2022-11-15T13:33:58;97579.81;;;14.21;70.69
55604;BME280;41468;48.838;9.330;2022-11-15T13:36:29;97580.25;;;14.15;70.98
55604;BME280;41468;48.838;9.330;2022-11-15T13:39:23;97571.94;;;14.23;71.99
55604;BME280;41468;48.838;9.330;2022-11-15T13:41:51;97579.47;;;14.19;71.94
55604;BME280;41468;48.838;9.330;2022-11-15T13:44:21;97579.47;;;14.15;72.90
55604;BME280;41468;48.838;9.330;2022-11-15T13:47:03;97569.31;;;14.12;73.63
55604;BME280;41468;48.838;9.330;2022-11-15T13:49:32;97574.75;;;14.15;74.59
55604;BME280;41468;48.838;9.330;2022-11-15T13:52:01;97567.69;;;14.18;74.82
55604;BME280;41468;48.838;9.330;2022-11-15T13:54:30;97561.03;;;14.15;74.07
55604;BME280;41468;48.838;9.330;2022-11-15T13:57:02;97557.91;;;14.17;74.84
55604;BME280;41468;48.838;9.330;2022-11-15T13:59:37;97559.03;;;14.20;73.12
55604;BME280;41468;48.838;9.330;2022-11-15T14:02:13;97552.81;;;14.15;73.36
55604;BME280;41468;48.838;9.330;2022-11-15T14:05:03;97548.88;;;14.17;73.66
55604;BME280;41468;48.838;9.330;2022-11-15T14:07:37;97543.34;;;14.20;72.42
55604;BME280;41468;48.838;9.330;2022-11-15T14:10:28;97541.03;;;14.19;71.95
55604;BME280;41468;48.838;9.330;2022-11-15T14:12:56;97541.03;;;14.19;72.04
55604;BME280;41468;48.838;9.330;2022-11-15T14:15:35;97523.41;;;14.16;72.01
55604;BME280;41468;48.838;9.330;2022-11-15T14:18:03;97523.84;;;14.11;71.50
55604;BME280;41468;48.838;9.330;2022-11-15T14:20:33;97525.41;;;14.12;71.60
55604;BME280;41468;48.838;9.330;2022-11-15T14:23:03;97523.09;;;14.10;70.96
55604;BME280;41468;48.838;9.330;2022-11-15T14:25:34;97521.97;;;14.04;73.04
55604;BME280;41468;48.838;9.330;2022-11-15T14:30:53;97511.88;;;13.94;74.57
55604;BME280;41468;48.838;9.330;2022-11-15T14:33:34;97502.97;;;13.86;76.13
55604;BME280;41468;48.838;9.330;2022-11-15T14:36:06;97501.00;;;13.83;77.19
55604;BME280;41468;48.838;9.330;2022-11-15T14:38:37;97496.69;;;13.86;81.70
55604;BME280;41468;48.838;9.330;2022-11-15T14:41:03;97488.94;;;13.77;82.69
55604;BME280;41468;48.838;9.330;2022-11-15T14:43:30;97494.16;;;13.64;86.04
55604;BME280;41468;48.838;9.330;2022-11-15T14:45:57;97493.81;;;13.59;86.83
55604;BME280;41468;48.838;9.330;2022-11-15T14:48:23;97486.84;;;13.54;89.36
55604;BME280;41468;48.838;9.330;2022-11-15T14:50:50;97484.59;;;13.42;91.43
55604;BME280;41468;48.838;9.330;2022-11-15T14:53:17;97486.16;;;13.43;91.75
55604;BME280;41468;48.838;9.330;2022-11-15T14:55:45;97475.28;;;13.32;90.95
55604;BME280;41468;48.838;9.330;2022-11-15T14:58:12;97483.84;;;13.38;90.19
55604;BME280;41468;48.838;9.330;2022-11-15T15:00:40;97475.69;;;13.31;87.51
55604;BME280;41468;48.838;9.330;2022-11-15T15:03:08;97463.06;;;13.40;84.38
55604;BME280;41468;48.838;9.330;2022-11-15T15:05:42;97463.44;;;13.42;82.35
55604;BME280;41468;48.838;9.330;2022-11-15T15:08:10;97458.63;;;13.54;79.67
55604;BME280;41468;48.838;9.330;2022-11-15T15:10:44;97450.81;;;13.52;78.24
55604;BME280;41468;48.838;9.330;2022-11-15T15:13:22;97448.56;;;13.43;78.66
55604;BME280;41468;48.838;9.330;2022-11-15T15:15:51;97445.78;;;13.47;79.41
55604;BME280;41468;48.838;9.330;2022-11-15T15:18:18;97447.75;;;13.43;78.87
55604;BME280;41468;48.838;9.330;2022-11-15T15:20:52;97436.00;;;13.42;80.01
55604;BME280;41468;48.838;9.330;2022-11-15T15:23:20;97434.50;;;13.38;81.96
55604;BME280;41468;48.838;9.330;2022-11-15T15:25:47;97431.41;;;13.32;82.88
55604;BME280;41468;48.838;9.330;2022-11-15T15:28:15;97431.47;;;13.29;83.63
55604;BME280;41468;48.838;9.330;2022-11-15T15:30:42;97427.56;;;13.26;85.11
55604;BME280;41468;48.838;9.330;2022-11-15T15:33:09;97422.09;;;13.22;84.72